createdAt,value
2018-08-14T00:04:43.327Z,3.80
2018-08-14T00:09:47.552Z,6.23
2018-08-14T00:14:51.575Z,5.10
2018-08-14T00:19:55.581Z,2.93
2018-08-14T00:24:59.531Z,7.27
2018-08-14T00:30:04.445Z,4.73
2018-08-14T00:35:08.717Z,6.73
2018-08-14T00:40:16.610Z,10.60
2018-08-14T00:45:21.303Z,2.70
2018-08-14T00:50:25.280Z,6.43
2018-08-14T00:55:29.307Z,9.40
2018-08-14T01:00:34.522Z,8.63
2018-08-14T01:05:38.502Z,7.63
2018-08-14T01:10:42.492Z,7.60
2018-08-14T01:15:46.482Z,10.37
2018-08-14T01:20:51.599Z,7.63
2018-08-14T01:25:55.586Z,7.90
2018-08-14T01:30:59.595Z,7.40
2018-08-14T01:36:03.611Z,11.50
2018-08-14T01:41:07.655Z,8.43
2018-08-14T01:46:11.670Z,9.67
2018-08-14T01:51:15.644Z,9.23
2018-08-14T01:56:19.642Z,12.50
2018-08-14T02:01:23.643Z,15.67
2018-08-14T02:06:27.688Z,9.13
2018-08-14T02:11:31.697Z,17.20
2018-08-14T02:16:35.738Z,12.17
2018-08-14T02:21:39.723Z,14.57
2018-08-14T02:26:43.792Z,11.63
2018-08-14T02:31:47.770Z,16.77
2018-08-14T02:36:51.818Z,18.47
2018-08-14T02:41:55.864Z,13.53
2018-08-14T02:46:59.871Z,13.40
2018-08-14T02:52:05.033Z,10.97
2018-08-14T02:57:09.009Z,15.63
2018-08-14T03:02:12.980Z,13.37
2018-08-14T03:07:16.979Z,14.03
2018-08-14T03:12:20.947Z,15.40
2018-08-14T03:17:25.517Z,14.00
2018-08-14T03:22:29.545Z,11.30
2018-08-14T03:27:33.535Z,14.10
2018-08-14T03:32:37.600Z,12.03
2018-08-14T03:37:41.710Z,15.33
2018-08-14T03:42:46.564Z,18.10
2018-08-14T03:47:50.545Z,15.23
2018-08-14T03:52:55.401Z,13.90
2018-08-14T03:57:59.499Z,15.70
2018-08-14T04:03:03.495Z,12.53
2018-08-14T04:08:07.545Z,10.40
2018-08-14T04:13:11.542Z,9.80
2018-08-14T04:18:15.683Z,13.73
2018-08-14T04:23:19.654Z,13.20
2018-08-14T04:28:23.634Z,11.00
2018-08-14T04:33:27.739Z,15.47
2018-08-14T04:38:32.028Z,16.17
2018-08-14T04:43:36.035Z,18.17
2018-08-14T04:48:40.010Z,19.77
2018-08-14T04:53:43.978Z,13.90
2018-08-14T04:58:47.958Z,17.10
2018-08-14T05:03:51.946Z,18.43
2018-08-14T05:08:55.959Z,15.80
2018-08-14T05:13:59.951Z,15.93
2018-08-14T05:19:04.008Z,18.43
2018-08-14T05:24:08.024Z,12.57
2018-08-14T05:36:32.352Z,17.17
2018-08-14T05:41:36.463Z,13.53
2018-08-14T05:46:40.471Z,14.17
2018-08-14T05:51:45.348Z,14.70
2018-08-14T05:56:49.333Z,12.77
2018-08-14T06:01:53.447Z,11.03
2018-08-14T06:06:57.432Z,13.80
2018-08-14T06:12:01.464Z,11.30
2018-08-14T06:17:05.664Z,10.97
2018-08-14T06:22:09.607Z,12.60
2018-08-14T06:27:13.607Z,13.10
2018-08-14T06:32:17.602Z,12.90
2018-08-14T06:37:22.000Z,12.53
2018-08-14T06:42:26.014Z,14.07
2018-08-14T06:47:30.791Z,11.90
2018-08-14T06:52:35.104Z,20.03
2018-08-14T06:57:40.392Z,14.83
2018-08-14T07:02:44.889Z,15.03
2018-08-14T07:07:48.875Z,17.47
2018-08-14T07:12:52.908Z,13.43
2018-08-14T07:17:56.865Z,13.93
2018-08-14T07:23:00.839Z,12.57
2018-08-14T07:28:04.887Z,13.70
2018-08-14T07:33:09.033Z,12.37
2018-08-14T07:38:13.015Z,13.43
2018-08-14T07:43:17.081Z,14.57
2018-08-14T07:48:21.083Z,13.87
2018-08-14T07:53:25.088Z,11.93
2018-08-14T07:58:29.095Z,10.30
2018-08-14T08:03:33.109Z,14.30
2018-08-14T08:08:37.218Z,12.20
2018-08-14T08:13:41.179Z,11.37
2018-08-14T08:18:45.167Z,9.30
2018-08-14T08:23:49.167Z,8.53
2018-08-14T08:28:53.142Z,7.73
2018-08-14T08:33:57.142Z,7.00
2018-08-14T08:39:01.149Z,6.47
2018-08-14T08:44:05.966Z,6.20
2018-08-14T08:49:09.990Z,5.23
2018-08-14T08:54:13.971Z,5.23
2018-08-14T08:59:18.726Z,4.27
2018-08-14T09:04:22.763Z,3.83
2018-08-14T09:09:26.737Z,3.00
2018-08-14T09:14:30.727Z,3.00
2018-08-14T09:19:34.743Z,3.27
2018-08-14T09:24:38.697Z,4.00
2018-08-14T09:29:42.737Z,4.30
2018-08-14T09:34:46.727Z,4.40
2018-08-14T09:39:50.913Z,3.60
2018-08-14T09:44:55.003Z,2.90
2018-08-14T09:49:58.982Z,3.83
2018-08-14T09:55:02.967Z,2.63
2018-08-14T10:00:15.318Z,1.97
2018-08-14T10:05:24.716Z,2.13
2018-08-14T10:10:28.830Z,2.70
2018-08-14T10:15:32.806Z,2.10
2018-08-14T10:20:36.780Z,1.90
2018-08-14T10:25:40.764Z,1.73
2018-08-14T10:30:45.587Z,1.30
2018-08-14T10:35:49.583Z,1.60
2018-08-14T10:40:53.561Z,2.07
2018-08-14T10:45:57.967Z,1.30
2018-08-14T10:51:01.903Z,1.60
2018-08-14T10:56:05.870Z,1.53
2018-08-14T11:01:09.891Z,2.20
2018-08-14T11:06:13.866Z,1.47
2018-08-14T11:11:19.280Z,1.40
2018-08-14T11:16:23.310Z,1.40
2018-08-14T11:21:27.318Z,1.30
2018-08-14T11:26:32.220Z,1.60
2018-08-14T11:31:36.231Z,1.70
2018-08-14T11:36:40.245Z,1.73
2018-08-14T11:41:44.351Z,1.47
2018-08-14T11:46:48.472Z,1.13
2018-08-14T11:51:52.447Z,1.40
2018-08-14T11:56:56.392Z,1.20
2018-08-14T12:02:00.437Z,1.23
2018-08-14T12:07:04.495Z,1.40
2018-08-14T12:12:08.449Z,1.33
2018-08-14T12:17:12.373Z,1.43
2018-08-14T12:22:16.363Z,1.33
2018-08-14T12:27:20.431Z,1.33
2018-08-14T12:32:24.372Z,1.07
2018-08-14T12:37:28.346Z,1.23
2018-08-14T12:42:32.343Z,1.60
2018-08-14T12:47:36.432Z,1.03
2018-08-14T12:52:40.498Z,1.47
2018-08-14T12:57:45.267Z,1.13
2018-08-14T13:02:49.578Z,1.43
2018-08-14T13:07:53.817Z,1.13
2018-08-14T13:12:57.802Z,1.37
2018-08-14T13:18:09.047Z,1.30
2018-08-14T13:23:14.392Z,0.80
2018-08-14T13:28:18.356Z,1.50
2018-08-14T13:33:22.374Z,1.20
2018-08-14T13:38:26.343Z,1.23
2018-08-14T13:43:30.326Z,1.40
2018-08-14T13:48:34.351Z,1.30
2018-08-14T13:53:38.393Z,1.40
2018-08-14T13:58:42.371Z,1.00
2018-08-14T14:03:46.359Z,1.07
2018-08-14T14:08:50.343Z,1.10
2018-08-14T14:13:54.340Z,1.00
2018-08-14T14:18:58.307Z,1.10
2018-08-14T14:24:02.359Z,1.20
2018-08-14T14:29:06.323Z,1.67
2018-08-14T14:34:10.310Z,1.57
2018-08-14T14:39:14.302Z,1.40
2018-08-14T14:44:18.346Z,1.10
2018-08-14T14:49:22.410Z,1.00
2018-08-14T14:54:27.026Z,1.17
2018-08-14T14:59:30.979Z,1.17
2018-08-14T15:04:35.411Z,1.33
2018-08-14T15:09:39.430Z,1.03
2018-08-14T15:14:43.383Z,1.13
2018-08-14T15:19:47.408Z,0.93
2018-08-14T15:24:51.383Z,0.97
2018-08-14T15:30:00.986Z,1.10
2018-08-14T15:35:04.995Z,1.17
2018-08-14T15:40:08.969Z,1.10
2018-08-14T15:45:12.962Z,1.30
2018-08-14T15:50:16.932Z,1.13
2018-08-14T15:55:20.916Z,1.00
2018-08-14T16:00:24.900Z,1.10
2018-08-14T16:05:28.899Z,1.00
2018-08-14T16:10:32.884Z,1.43
2018-08-14T16:15:36.871Z,1.03
2018-08-14T16:20:41.018Z,1.07
2018-08-14T16:25:44.963Z,1.00
2018-08-14T16:30:48.955Z,1.00
2018-08-14T16:35:52.931Z,1.10
2018-08-14T16:40:56.961Z,1.37
2018-08-14T16:46:00.942Z,1.67
2018-08-14T16:51:04.930Z,1.83
2018-08-14T16:56:08.923Z,1.30
2018-08-14T17:01:12.918Z,1.37
2018-08-14T17:06:19.197Z,1.90
2018-08-14T17:11:23.175Z,1.67
2018-08-14T17:16:27.298Z,1.83
2018-08-14T17:21:30.319Z,2.07
2018-08-14T17:26:34.332Z,1.67
2018-08-14T17:31:39.114Z,2.27
2018-08-14T17:36:43.060Z,1.80
2018-08-14T17:41:47.051Z,1.70
2018-08-14T17:46:51.083Z,2.00
2018-08-14T17:51:55.157Z,1.90
2018-08-14T17:56:59.127Z,2.43
2018-08-14T18:02:03.257Z,1.80
2018-08-14T18:07:07.296Z,1.93
2018-08-14T18:12:11.287Z,2.20
2018-08-14T18:17:15.285Z,2.07
2018-08-14T18:22:19.262Z,2.23
2018-08-14T18:27:23.260Z,2.37
2018-08-14T18:32:27.788Z,3.00
2018-08-14T18:37:31.835Z,2.57
2018-08-14T18:42:35.819Z,2.40
2018-08-14T18:47:39.969Z,2.70
2018-08-14T18:52:43.990Z,2.20
2018-08-14T18:57:48.903Z,2.50
2018-08-14T19:02:53.786Z,2.20
2018-08-14T19:07:57.760Z,2.10
2018-08-14T19:13:01.789Z,2.10
2018-08-14T19:18:06.851Z,2.27
2018-08-14T19:23:10.900Z,2.10
2018-08-14T19:28:14.855Z,2.10
2018-08-14T19:33:19.106Z,2.37
2018-08-14T19:38:23.079Z,2.40
2018-08-14T19:43:27.218Z,2.10
2018-08-14T19:48:31.199Z,2.17
2018-08-14T19:53:35.238Z,2.37
2018-08-14T19:58:39.235Z,1.90
2018-08-14T20:03:43.235Z,2.37
2018-08-14T20:08:47.222Z,2.10
2018-08-14T20:13:51.242Z,1.80
2018-08-14T20:18:55.222Z,2.60
2018-08-14T20:23:59.243Z,2.00
2018-08-14T20:29:03.279Z,2.20
2018-08-14T20:34:07.305Z,2.30
2018-08-14T20:39:11.330Z,2.53
2018-08-14T20:44:15.516Z,2.13
2018-08-14T20:49:19.486Z,2.43
2018-08-14T20:54:23.535Z,2.60
2018-08-14T20:59:27.889Z,5.10
2018-08-14T21:04:31.919Z,3.20
2018-08-14T21:09:35.887Z,3.40
2018-08-14T21:14:39.903Z,2.47
2018-08-14T21:19:43.854Z,2.93
2018-08-14T21:24:47.854Z,2.77
2018-08-14T21:29:51.949Z,2.83
2018-08-14T21:34:55.963Z,4.53
2018-08-14T21:40:00.763Z,4.00
2018-08-14T21:45:06.739Z,4.40
2018-08-14T21:50:10.791Z,2.10
2018-08-14T21:55:15.446Z,3.67
2018-08-14T22:00:28.882Z,3.67
2018-08-14T22:05:32.845Z,2.67
2018-08-14T22:10:36.811Z,3.33
2018-08-14T22:15:40.762Z,3.10
2018-08-14T22:20:44.731Z,2.93
2018-08-14T22:25:48.736Z,3.13
2018-08-14T22:30:52.736Z,3.07
2018-08-14T22:35:56.707Z,3.23
2018-08-14T22:41:00.704Z,3.73
2018-08-14T22:46:04.695Z,2.63
2018-08-14T22:51:08.742Z,2.57
2018-08-14T22:56:12.715Z,2.03
2018-08-14T23:01:16.715Z,2.80
2018-08-14T23:06:20.671Z,2.77
2018-08-14T23:11:24.703Z,3.00
2018-08-14T23:16:28.696Z,2.00
2018-08-14T23:21:32.726Z,4.17
2018-08-14T23:26:36.737Z,1.87
2018-08-14T23:31:40.710Z,1.90
2018-08-14T23:36:44.695Z,3.60
2018-08-14T23:41:49.539Z,2.37
2018-08-14T23:46:54.265Z,2.20
2018-08-14T23:51:58.242Z,5.50
2018-08-14T23:57:02.235Z,4.33
